sensor_id;sensor_type;location;lat;lon;timestamp;P1;durP1;ratioP1;P2;durP2;ratioP2
3941;SDS011;1985;48.592;8.850;2024-01-15T00:01:56;21.20;;;8.52;;
3941;SDS011;1985;48.592;8.850;2024-01-15T00:04:22;21.85;;;8.40;;
3941;SDS011;1985;48.592;8.850;2024-01-15T00:06:48;21.10;;;8.07;;
3941;SDS011;1985;48.592;8.850;2024-01-15T00:09:15;24.65;;;8.27;;
3941;SDS011;1985;48.592;8.850;2024-01-15T00:11:40;24.33;;;8.98;;
3941;SDS011;1985;48.592;8.850;2024-01-15T00:14:07;21.45;;;8.27;;
3941;SDS011;1985;48.592;8.850;2024-01-15T00:16:33;22.48;;;7.95;;
3941;SDS011;1985;48.592;8.850;2024-01-15T00:18:59;24.03;;;8.70;;
3941;SDS011;1985;48.592;8.850;2024-01-15T00:21:24;20.33;;;8.50;;
3941;SDS011;1985;48.592;8.850;2024-01-15T00:23:50;23.00;;;8.37;;
3941;SDS011;1985;48.592;8.850;2024-01-15T00:26:16;20.88;;;7.72;;
3941;SDS011;1985;48.592;8.850;2024-01-15T00:28:42;21.70;;;9.02;;
3941;SDS011;1985;48.592;8.850;2024-01-15T00:31:08;25.02;;;8.18;;
3941;SDS011;1985;48.592;8.850;2024-01-15T00:33:34;22.85;;;8.00;;
3941;SDS011;1985;48.592;8.850;2024-01-15T00:36:00;23.70;;;8.32;;
3941;SDS011;1985;48.592;8.850;2024-01-15T00:38:26;21.40;;;8.45;;
3941;SDS011;1985;48.592;8.850;2024-01-15T00:40:51;20.98;;;7.82;;
3941;SDS011;1985;48.592;8.850;2024-01-15T00:43:17;19.92;;;7.50;;
3941;SDS011;1985;48.592;8.850;2024-01-15T00:45:46;17.95;;;7.07;;
3941;SDS011;1985;48.592;8.850;2024-01-15T00:48:11;23.48;;;8.73;;
3941;SDS011;1985;48.592;8.850;2024-01-15T00:50:37;24.70;;;8.43;;
3941;SDS011;1985;48.592;8.850;2024-01-15T00:53:03;24.30;;;8.43;;
3941;SDS011;1985;48.592;8.850;2024-01-15T00:55:29;24.63;;;8.93;;
3941;SDS011;1985;48.592;8.850;2024-01-15T00:57:55;21.67;;;8.20;;
3941;SDS011;1985;48.592;8.850;2024-01-15T01:00:20;20.00;;;7.67;;
3941;SDS011;1985;48.592;8.850;2024-01-15T01:02:46;22.05;;;8.20;;
3941;SDS011;1985;48.592;8.850;2024-01-15T01:05:12;25.48;;;8.02;;
3941;SDS011;1985;48.592;8.850;2024-01-15T01:07:37;21.52;;;8.00;;
3941;SDS011;1985;48.592;8.850;2024-01-15T01:10:03;19.80;;;6.90;;
3941;SDS011;1985;48.592;8.850;2024-01-15T01:12:29;22.88;;;6.93;;
3941;SDS011;1985;48.592;8.850;2024-01-15T01:14:55;21.53;;;8.20;;
3941;SDS011;1985;48.592;8.850;2024-01-15T01:17:21;20.40;;;6.70;;
3941;SDS011;1985;48.592;8.850;2024-01-15T01:19:47;20.10;;;7.53;;
3941;SDS011;1985;48.592;8.850;2024-01-15T01:22:13;22.63;;;7.63;;
3941;SDS011;1985;48.592;8.850;2024-01-15T01:24:38;20.47;;;7.30;;
3941;SDS011;1985;48.592;8.850;2024-01-15T01:27:04;21.52;;;7.40;;
3941;SDS011;1985;48.592;8.850;2024-01-15T01:29:29;22.70;;;8.60;;
3941;SDS011;1985;48.592;8.850;2024-01-15T01:31:55;21.70;;;7.25;;
3941;SDS011;1985;48.592;8.850;2024-01-15T01:34:21;20.92;;;8.00;;
3941;SDS011;1985;48.592;8.850;2024-01-15T01:36:47;22.08;;;7.60;;
3941;SDS011;1985;48.592;8.850;2024-01-15T01:39:12;23.55;;;8.10;;
3941;SDS011;1985;48.592;8.850;2024-01-15T01:41:38;19.87;;;7.70;;
3941;SDS011;1985;48.592;8.850;2024-01-15T01:44:05;22.77;;;8.60;;
3941;SDS011;1985;48.592;8.850;2024-01-15T01:46:31;22.93;;;8.43;;
3941;SDS011;1985;48.592;8.850;2024-01-15T01:48:57;23.83;;;8.43;;
3941;SDS011;1985;48.592;8.850;2024-01-15T01:51:26;20.75;;;7.95;;
3941;SDS011;1985;48.592;8.850;2024-01-15T01:53:52;26.00;;;8.20;;
3941;SDS011;1985;48.592;8.850;2024-01-15T01:56:17;23.92;;;8.50;;
3941;SDS011;1985;48.592;8.850;2024-01-15T01:58:44;22.70;;;8.25;;
3941;SDS011;1985;48.592;8.850;2024-01-15T02:01:10;24.23;;;8.48;;
3941;SDS011;1985;48.592;8.850;2024-01-15T02:03:40;21.52;;;7.85;;
3941;SDS011;1985;48.592;8.850;2024-01-15T02:06:06;26.02;;;8.10;;
3941;SDS011;1985;48.592;8.850;2024-01-15T02:08:32;23.20;;;7.83;;
3941;SDS011;1985;48.592;8.850;2024-01-15T02:10:58;27.48;;;8.07;;
3941;SDS011;1985;48.592;8.850;2024-01-15T02:13:23;23.00;;;8.70;;
3941;SDS011;1985;48.592;8.850;2024-01-15T02:15:49;21.53;;;8.13;;
3941;SDS011;1985;48.592;8.850;2024-01-15T02:18:15;21.90;;;8.30;;
3941;SDS011;1985;48.592;8.850;2024-01-15T02:20:40;24.03;;;8.90;;
3941;SDS011;1985;48.592;8.850;2024-01-15T02:25:46;27.33;;;9.38;;
3941;SDS011;1985;48.592;8.850;2024-01-15T02:28:15;22.13;;;8.60;;
3941;SDS011;1985;48.592;8.850;2024-01-15T02:30:42;22.20;;;9.07;;
3941;SDS011;1985;48.592;8.850;2024-01-15T02:33:09;26.57;;;8.17;;
3941;SDS011;1985;48.592;8.850;2024-01-15T02:35:36;24.35;;;8.85;;
3941;SDS011;1985;48.592;8.850;2024-01-15T02:38:02;20.08;;;7.70;;
3941;SDS011;1985;48.592;8.850;2024-01-15T02:40:30;27.10;;;8.82;;
3941;SDS011;1985;48.592;8.850;2024-01-15T02:42:56;27.58;;;9.57;;
3941;SDS011;1985;48.592;8.850;2024-01-15T02:45:22;23.15;;;7.93;;
3941;SDS011;1985;48.592;8.850;2024-01-15T02:47:48;25.88;;;8.40;;
3941;SDS011;1985;48.592;8.850;2024-01-15T02:50:14;24.25;;;8.75;;
3941;SDS011;1985;48.592;8.850;2024-01-15T02:52:39;23.23;;;8.40;;
3941;SDS011;1985;48.592;8.850;2024-01-15T02:55:06;24.20;;;8.65;;
3941;SDS011;1985;48.592;8.850;2024-01-15T02:57:32;24.73;;;9.32;;
3941;SDS011;1985;48.592;8.850;2024-01-15T02:59:58;24.70;;;8.93;;
3941;SDS011;1985;48.592;8.850;2024-01-15T03:02:23;24.85;;;8.40;;
3941;SDS011;1985;48.592;8.850;2024-01-15T03:04:49;23.00;;;9.00;;
3941;SDS011;1985;48.592;8.850;2024-01-15T03:07:15;24.80;;;9.30;;
3941;SDS011;1985;48.592;8.850;2024-01-15T03:09:40;26.10;;;9.07;;
3941;SDS011;1985;48.592;8.850;2024-01-15T03:12:06;26.27;;;8.70;;
3941;SDS011;1985;48.592;8.850;2024-01-15T03:14:32;24.35;;;9.07;;
3941;SDS011;1985;48.592;8.850;2024-01-15T03:16:58;27.47;;;9.13;;
3941;SDS011;1985;48.592;8.850;2024-01-15T03:19:23;23.43;;;9.00;;
3941;SDS011;1985;48.592;8.850;2024-01-15T03:21:49;26.67;;;9.20;;
3941;SDS011;1985;48.592;8.850;2024-01-15T03:24:14;23.98;;;8.63;;
3941;SDS011;1985;48.592;8.850;2024-01-15T03:26:40;24.77;;;8.50;;
3941;SDS011;1985;48.592;8.850;2024-01-15T03:29:07;23.57;;;9.50;;
3941;SDS011;1985;48.592;8.850;2024-01-15T03:31:33;25.05;;;9.65;;
3941;SDS011;1985;48.592;8.850;2024-01-15T03:33:58;27.37;;;9.20;;
3941;SDS011;1985;48.592;8.850;2024-01-15T03:36:24;26.23;;;9.73;;
3941;SDS011;1985;48.592;8.850;2024-01-15T03:38:49;28.27;;;9.67;;
3941;SDS011;1985;48.592;8.850;2024-01-15T03:41:15;27.27;;;9.75;;
3941;SDS011;1985;48.592;8.850;2024-01-15T03:43:41;25.00;;;8.80;;
3941;SDS011;1985;48.592;8.850;2024-01-15T03:46:06;25.40;;;9.37;;
3941;SDS011;1985;48.592;8.850;2024-01-15T03:48:32;29.50;;;9.80;;
3941;SDS011;1985;48.592;8.850;2024-01-15T03:50:58;30.00;;;10.47;;
3941;SDS011;1985;48.592;8.850;2024-01-15T03:53:24;25.30;;;9.40;;
3941;SDS011;1985;48.592;8.850;2024-01-15T03:55:49;26.45;;;10.50;;
3941;SDS011;1985;48.592;8.850;2024-01-15T03:58:15;29.98;;;10.95;;
3941;SDS011;1985;48.592;8.850;2024-01-15T04:00:42;27.90;;;10.10;;
3941;SDS011;1985;48.592;8.850;2024-01-15T04:03:08;25.80;;;9.60;;
3941;SDS011;1985;48.592;8.850;2024-01-15T04:05:33;24.27;;;9.55;;
3941;SDS011;1985;48.592;8.850;2024-01-15T04:07:59;28.80;;;11.27;;
3941;SDS011;1985;48.592;8.850;2024-01-15T04:10:25;24.27;;;9.30;;
3941;SDS011;1985;48.592;8.850;2024-01-15T04:12:51;24.90;;;9.93;;
3941;SDS011;1985;48.592;8.850;2024-01-15T04:15:16;25.65;;;9.27;;
3941;SDS011;1985;48.592;8.850;2024-01-15T04:17:42;26.50;;;9.53;;
3941;SDS011;1985;48.592;8.850;2024-01-15T04:20:08;24.00;;;9.75;;
3941;SDS011;1985;48.592;8.850;2024-01-15T04:22:35;29.42;;;9.80;;
3941;SDS011;1985;48.592;8.850;2024-01-15T04:25:01;28.57;;;10.30;;
3941;SDS011;1985;48.592;8.850;2024-01-15T04:27:26;25.30;;;9.18;;
3941;SDS011;1985;48.592;8.850;2024-01-15T04:29:52;31.65;;;10.13;;
3941;SDS011;1985;48.592;8.850;2024-01-15T04:32:18;29.17;;;10.20;;
3941;SDS011;1985;48.592;8.850;2024-01-15T04:34:44;31.17;;;11.53;;
3941;SDS011;1985;48.592;8.850;2024-01-15T04:37:10;29.53;;;11.30;;
3941;SDS011;1985;48.592;8.850;2024-01-15T04:39:35;29.67;;;10.57;;
3941;SDS011;1985;48.592;8.850;2024-01-15T04:42:01;29.83;;;11.90;;
3941;SDS011;1985;48.592;8.850;2024-01-15T04:44:27;47.78;;;17.70;;
3941;SDS011;1985;48.592;8.850;2024-01-15T04:46:53;31.85;;;11.95;;
3941;SDS011;1985;48.592;8.850;2024-01-15T04:49:20;38.40;;;14.77;;
3941;SDS011;1985;48.592;8.850;2024-01-15T04:51:46;38.40;;;13.63;;
3941;SDS011;1985;48.592;8.850;2024-01-15T04:54:12;34.65;;;12.48;;
3941;SDS011;1985;48.592;8.850;2024-01-15T04:56:38;41.03;;;18.52;;
3941;SDS011;1985;48.592;8.850;2024-01-15T04:59:03;33.60;;;14.57;;
3941;SDS011;1985;48.592;8.850;2024-01-15T05:01:32;32.15;;;12.70;;
3941;SDS011;1985;48.592;8.850;2024-01-15T05:03:58;33.70;;;12.20;;
3941;SDS011;1985;48.592;8.850;2024-01-15T05:06:24;28.23;;;10.65;;
3941;SDS011;1985;48.592;8.850;2024-01-15T05:08:50;26.17;;;9.85;;
3941;SDS011;1985;48.592;8.850;2024-01-15T05:11:15;33.55;;;13.48;;
3941;SDS011;1985;48.592;8.850;2024-01-15T05:13:41;26.38;;;10.75;;
3941;SDS011;1985;48.592;8.850;2024-01-15T05:16:07;21.00;;;8.20;;
3941;SDS011;1985;48.592;8.850;2024-01-15T05:18:33;24.02;;;7.97;;
3941;SDS011;1985;48.592;8.850;2024-01-15T05:20:58;23.48;;;9.57;;
3941;SDS011;1985;48.592;8.850;2024-01-15T05:23:24;23.00;;;8.85;;
3941;SDS011;1985;48.592;8.850;2024-01-15T05:25:49;19.00;;;7.83;;
3941;SDS011;1985;48.592;8.850;2024-01-15T05:28:15;22.33;;;8.37;;
3941;SDS011;1985;48.592;8.850;2024-01-15T05:30:41;20.90;;;7.77;;
3941;SDS011;1985;48.592;8.850;2024-01-15T05:33:06;23.58;;;8.55;;
3941;SDS011;1985;48.592;8.850;2024-01-15T05:35:32;21.23;;;7.75;;
3941;SDS011;1985;48.592;8.850;2024-01-15T05:37:58;19.27;;;8.35;;
3941;SDS011;1985;48.592;8.850;2024-01-15T05:40:24;22.23;;;8.43;;
3941;SDS011;1985;48.592;8.850;2024-01-15T05:42:50;44.97;;;18.70;;
3941;SDS011;1985;48.592;8.850;2024-01-15T05:45:15;28.65;;;11.38;;
3941;SDS011;1985;48.592;8.850;2024-01-15T05:47:41;20.10;;;7.72;;
3941;SDS011;1985;48.592;8.850;2024-01-15T05:50:07;19.83;;;7.40;;
3941;SDS011;1985;48.592;8.850;2024-01-15T05:52:33;20.90;;;7.93;;
3941;SDS011;1985;48.592;8.850;2024-01-15T05:54:59;24.90;;;9.10;;
3941;SDS011;1985;48.592;8.850;2024-01-15T05:57:25;25.30;;;9.63;;
3941;SDS011;1985;48.592;8.850;2024-01-15T05:59:50;24.97;;;9.67;;
3941;SDS011;1985;48.592;8.850;2024-01-15T06:02:16;25.30;;;9.60;;
3941;SDS011;1985;48.592;8.850;2024-01-15T06:04:42;25.25;;;10.00;;
3941;SDS011;1985;48.592;8.850;2024-01-15T06:07:07;27.27;;;10.40;;
3941;SDS011;1985;48.592;8.850;2024-01-15T06:09:33;24.65;;;9.55;;
3941;SDS011;1985;48.592;8.850;2024-01-15T06:11:59;24.52;;;9.80;;
3941;SDS011;1985;48.592;8.850;2024-01-15T06:14:25;22.13;;;9.02;;
3941;SDS011;1985;48.592;8.850;2024-01-15T06:16:50;24.50;;;9.23;;
3941;SDS011;1985;48.592;8.850;2024-01-15T06:19:17;27.15;;;9.80;;
3941;SDS011;1985;48.592;8.850;2024-01-15T06:21:42;24.60;;;9.53;;
3941;SDS011;1985;48.592;8.850;2024-01-15T06:24:08;27.48;;;10.00;;
3941;SDS011;1985;48.592;8.850;2024-01-15T06:26:35;25.60;;;9.20;;
3941;SDS011;1985;48.592;8.850;2024-01-15T06:29:00;23.30;;;8.75;;
3941;SDS011;1985;48.592;8.850;2024-01-15T06:31:28;21.48;;;9.38;;
3941;SDS011;1985;48.592;8.850;2024-01-15T06:33:53;23.35;;;9.15;;
3941;SDS011;1985;48.592;8.850;2024-01-15T06:36:20;22.75;;;8.43;;
3941;SDS011;1985;48.592;8.850;2024-01-15T06:38:45;19.50;;;8.15;;
3941;SDS011;1985;48.592;8.850;2024-01-15T06:41:11;22.50;;;8.57;;
3941;SDS011;1985;48.592;8.850;2024-01-15T06:43:37;21.57;;;8.07;;
3941;SDS011;1985;48.592;8.850;2024-01-15T06:46:02;24.77;;;8.87;;
3941;SDS011;1985;48.592;8.850;2024-01-15T06:48:28;26.02;;;9.38;;
3941;SDS011;1985;48.592;8.850;2024-01-15T06:50:54;22.70;;;8.20;;
3941;SDS011;1985;48.592;8.850;2024-01-15T06:53:19;21.40;;;8.45;;
3941;SDS011;1985;48.592;8.850;2024-01-15T06:55:46;24.63;;;8.80;;
3941;SDS011;1985;48.592;8.850;2024-01-15T06:58:11;19.23;;;7.65;;
3941;SDS011;1985;48.592;8.850;2024-01-15T07:00:37;23.55;;;9.18;;
3941;SDS011;1985;48.592;8.850;2024-01-15T07:03:03;20.67;;;7.70;;
3941;SDS011;1985;48.592;8.850;2024-01-15T07:05:29;19.05;;;7.45;;
3941;SDS011;1985;48.592;8.850;2024-01-15T07:07:55;20.92;;;7.47;;
3941;SDS011;1985;48.592;8.850;2024-01-15T07:10:21;19.97;;;8.50;;
3941;SDS011;1985;48.592;8.850;2024-01-15T07:12:47;20.27;;;8.00;;
3941;SDS011;1985;48.592;8.850;2024-01-15T07:15:12;18.77;;;7.40;;
3941;SDS011;1985;48.592;8.850;2024-01-15T07:17:39;21.98;;;7.63;;
3941;SDS011;1985;48.592;8.850;2024-01-15T07:20:08;20.38;;;7.25;;
3941;SDS011;1985;48.592;8.850;2024-01-15T07:22:37;19.42;;;7.93;;
3941;SDS011;1985;48.592;8.850;2024-01-15T07:25:03;19.13;;;7.20;;
3941;SDS011;1985;48.592;8.850;2024-01-15T07:27:32;20.35;;;6.35;;
3941;SDS011;1985;48.592;8.850;2024-01-15T07:29:58;18.67;;;7.97;;
3941;SDS011;1985;48.592;8.850;2024-01-15T07:32:24;19.73;;;7.32;;
3941;SDS011;1985;48.592;8.850;2024-01-15T07:34:49;18.95;;;6.53;;
3941;SDS011;1985;48.592;8.850;2024-01-15T07:37:15;18.77;;;6.03;;
3941;SDS011;1985;48.592;8.850;2024-01-15T07:39:41;15.90;;;6.50;;
3941;SDS011;1985;48.592;8.850;2024-01-15T07:42:06;16.67;;;6.17;;
3941;SDS011;1985;48.592;8.850;2024-01-15T07:44:32;21.07;;;5.80;;
3941;SDS011;1985;48.592;8.850;2024-01-15T07:46:58;18.77;;;7.00;;
3941;SDS011;1985;48.592;8.850;2024-01-15T07:49:24;14.50;;;5.10;;
3941;SDS011;1985;48.592;8.850;2024-01-15T07:51:50;16.17;;;6.03;;
3941;SDS011;1985;48.592;8.850;2024-01-15T07:54:15;17.03;;;5.87;;
3941;SDS011;1985;48.592;8.850;2024-01-15T07:56:54;15.23;;;5.40;;
3941;SDS011;1985;48.592;8.850;2024-01-15T07:59:20;16.70;;;5.32;;
3941;SDS011;1985;48.592;8.850;2024-01-15T08:01:45;15.38;;;6.30;;
3941;SDS011;1985;48.592;8.850;2024-01-15T08:04:12;16.90;;;5.30;;
3941;SDS011;1985;48.592;8.850;2024-01-15T08:06:38;16.17;;;5.10;;
3941;SDS011;1985;48.592;8.850;2024-01-15T08:09:04;16.85;;;5.13;;
3941;SDS011;1985;48.592;8.850;2024-01-15T08:11:30;17.35;;;5.95;;
3941;SDS011;1985;48.592;8.850;2024-01-15T08:13:56;15.80;;;5.43;;
3941;SDS011;1985;48.592;8.850;2024-01-15T08:16:21;15.75;;;5.90;;
3941;SDS011;1985;48.592;8.850;2024-01-15T08:18:49;15.60;;;5.55;;
3941;SDS011;1985;48.592;8.850;2024-01-15T08:21:15;15.63;;;5.60;;
3941;SDS011;1985;48.592;8.850;2024-01-15T08:23:40;16.10;;;5.67;;
3941;SDS011;1985;48.592;8.850;2024-01-15T08:26:07;14.15;;;5.65;;
3941;SDS011;1985;48.592;8.850;2024-01-15T08:28:33;15.73;;;5.00;;
3941;SDS011;1985;48.592;8.850;2024-01-15T08:30:59;13.57;;;5.05;;
3941;SDS011;1985;48.592;8.850;2024-01-15T08:33:25;16.27;;;4.87;;
3941;SDS011;1985;48.592;8.850;2024-01-15T08:35:50;18.23;;;5.60;;
3941;SDS011;1985;48.592;8.850;2024-01-15T08:38:16;14.73;;;4.85;;
3941;SDS011;1985;48.592;8.850;2024-01-15T08:40:42;13.20;;;4.90;;
3941;SDS011;1985;48.592;8.850;2024-01-15T08:43:07;18.00;;;5.10;;
3941;SDS011;1985;48.592;8.850;2024-01-15T08:45:33;13.10;;;4.10;;
3941;SDS011;1985;48.592;8.850;2024-01-15T08:47:58;11.80;;;3.97;;
3941;SDS011;1985;48.592;8.850;2024-01-15T08:50:24;12.63;;;4.22;;
3941;SDS011;1985;48.592;8.850;2024-01-15T08:52:50;12.88;;;4.50;;
3941;SDS011;1985;48.592;8.850;2024-01-15T08:55:16;13.45;;;4.07;;
3941;SDS011;1985;48.592;8.850;2024-01-15T08:57:41;14.35;;;4.82;;
3941;SDS011;1985;48.592;8.850;2024-01-15T09:00:08;13.18;;;4.40;;
3941;SDS011;1985;48.592;8.850;2024-01-15T09:02:34;17.02;;;5.30;;
3941;SDS011;1985;48.592;8.850;2024-01-15T09:05:01;14.40;;;4.63;;
3941;SDS011;1985;48.592;8.850;2024-01-15T09:07:27;12.82;;;4.22;;
3941;SDS011;1985;48.592;8.850;2024-01-15T09:09:52;14.80;;;5.40;;
3941;SDS011;1985;48.592;8.850;2024-01-15T09:12:18;13.97;;;4.57;;
3941;SDS011;1985;48.592;8.850;2024-01-15T09:14:46;14.00;;;4.60;;
3941;SDS011;1985;48.592;8.850;2024-01-15T09:17:12;14.23;;;5.00;;
3941;SDS011;1985;48.592;8.850;2024-01-15T09:19:38;16.90;;;5.65;;
3941;SDS011;1985;48.592;8.850;2024-01-15T09:22:06;13.83;;;5.47;;
3941;SDS011;1985;48.592;8.850;2024-01-15T09:24:32;12.87;;;5.27;;
3941;SDS011;1985;48.592;8.850;2024-01-15T09:26:58;16.10;;;5.10;;
3941;SDS011;1985;48.592;8.850;2024-01-15T09:29:24;13.27;;;4.37;;
3941;SDS011;1985;48.592;8.850;2024-01-15T09:31:50;16.70;;;4.65;;
3941;SDS011;1985;48.592;8.850;2024-01-15T09:34:17;16.42;;;4.85;;
3941;SDS011;1985;48.592;8.850;2024-01-15T09:36:43;14.20;;;4.50;;
3941;SDS011;1985;48.592;8.850;2024-01-15T09:39:09;13.20;;;4.73;;
3941;SDS011;1985;48.592;8.850;2024-01-15T09:41:36;16.92;;;5.50;;
3941;SDS011;1985;48.592;8.850;2024-01-15T09:44:06;14.73;;;5.20;;
3941;SDS011;1985;48.592;8.850;2024-01-15T09:46:35;15.25;;;5.38;;
3941;SDS011;1985;48.592;8.850;2024-01-15T09:49:01;14.13;;;4.73;;
3941;SDS011;1985;48.592;8.850;2024-01-15T09:51:28;12.30;;;4.43;;
3941;SDS011;1985;48.592;8.850;2024-01-15T09:53:57;12.38;;;4.13;;
3941;SDS011;1985;48.592;8.850;2024-01-15T09:56:23;14.73;;;4.95;;
3941;SDS011;1985;48.592;8.850;2024-01-15T09:58:49;13.88;;;4.35;;
3941;SDS011;1985;48.592;8.850;2024-01-15T10:01:19;14.40;;;4.40;;
3941;SDS011;1985;48.592;8.850;2024-01-15T10:03:46;14.10;;;4.30;;
3941;SDS011;1985;48.592;8.850;2024-01-15T10:06:13;14.25;;;5.25;;
3941;SDS011;1985;48.592;8.850;2024-01-15T10:08:42;12.50;;;4.57;;
3941;SDS011;1985;48.592;8.850;2024-01-15T10:11:12;13.02;;;4.13;;
3941;SDS011;1985;48.592;8.850;2024-01-15T10:13:39;14.70;;;5.30;;
3941;SDS011;1985;48.592;8.850;2024-01-15T10:16:05;17.55;;;4.82;;
3941;SDS011;1985;48.592;8.850;2024-01-15T10:18:31;12.93;;;4.28;;
3941;SDS011;1985;48.592;8.850;2024-01-15T10:20:57;12.35;;;4.15;;
3941;SDS011;1985;48.592;8.850;2024-01-15T10:23:24;13.65;;;4.18;;
3941;SDS011;1985;48.592;8.850;2024-01-15T10:25:49;14.15;;;4.65;;
3941;SDS011;1985;48.592;8.850;2024-01-15T10:28:16;13.80;;;4.53;;
3941;SDS011;1985;48.592;8.850;2024-01-15T10:30:44;14.88;;;4.70;;
3941;SDS011;1985;48.592;8.850;2024-01-15T10:33:10;13.10;;;4.05;;
3941;SDS011;1985;48.592;8.850;2024-01-15T10:35:37;12.88;;;4.15;;
3941;SDS011;1985;48.592;8.850;2024-01-15T10:38:03;15.02;;;4.20;;
3941;SDS011;1985;48.592;8.850;2024-01-15T10:40:30;14.60;;;4.30;;
3941;SDS011;1985;48.592;8.850;2024-01-15T10:42:56;15.07;;;5.10;;
3941;SDS011;1985;48.592;8.850;2024-01-15T10:45:22;14.98;;;4.80;;
3941;SDS011;1985;48.592;8.850;2024-01-15T10:47:49;15.63;;;4.93;;
3941;SDS011;1985;48.592;8.850;2024-01-15T10:50:14;16.77;;;4.90;;
3941;SDS011;1985;48.592;8.850;2024-01-15T10:52:41;12.48;;;5.20;;
3941;SDS011;1985;48.592;8.850;2024-01-15T10:55:10;15.00;;;4.90;;
3941;SDS011;1985;48.592;8.850;2024-01-15T10:57:37;16.02;;;4.85;;
3941;SDS011;1985;48.592;8.850;2024-01-15T11:00:03;14.27;;;4.78;;
3941;SDS011;1985;48.592;8.850;2024-01-15T11:02:31;15.90;;;5.03;;
3941;SDS011;1985;48.592;8.850;2024-01-15T11:05:01;14.95;;;4.70;;
3941;SDS011;1985;48.592;8.850;2024-01-15T11:07:27;16.63;;;5.00;;
3941;SDS011;1985;48.592;8.850;2024-01-15T11:09:55;14.35;;;4.78;;
3941;SDS011;1985;48.592;8.850;2024-01-15T11:12:20;13.93;;;4.13;;
3941;SDS011;1985;48.592;8.850;2024-01-15T11:14:46;13.68;;;4.75;;
3941;SDS011;1985;48.592;8.850;2024-01-15T11:17:13;15.63;;;4.40;;
3941;SDS011;1985;48.592;8.850;2024-01-15T11:24:57;13.88;;;4.72;;
3941;SDS011;1985;48.592;8.850;2024-01-15T11:30:29;12.88;;;4.40;;
3941;SDS011;1985;48.592;8.850;2024-01-15T11:32:54;12.60;;;4.55;;
3941;SDS011;1985;48.592;8.850;2024-01-15T11:35:20;13.73;;;5.30;;
3941;SDS011;1985;48.592;8.850;2024-01-15T11:40:21;13.00;;;4.60;;
3941;SDS011;1985;48.592;8.850;2024-01-15T11:42:47;13.93;;;4.47;;
3941;SDS011;1985;48.592;8.850;2024-01-15T11:45:18;12.63;;;4.32;;
3941;SDS011;1985;48.592;8.850;2024-01-15T11:50:10;17.27;;;5.47;;
3941;SDS011;1985;48.592;8.850;2024-01-15T11:52:37;18.35;;;4.57;;
3941;SDS011;1985;48.592;8.850;2024-01-15T12:00:05;15.98;;;5.78;;
3941;SDS011;1985;48.592;8.850;2024-01-15T12:02:31;14.52;;;5.13;;
3941;SDS011;1985;48.592;8.850;2024-01-15T12:04:57;15.48;;;5.20;;
3941;SDS011;1985;48.592;8.850;2024-01-15T12:07:23;16.15;;;5.63;;
3941;SDS011;1985;48.592;8.850;2024-01-15T12:09:49;14.65;;;5.00;;
3941;SDS011;1985;48.592;8.850;2024-01-15T12:12:17;12.23;;;5.03;;
3941;SDS011;1985;48.592;8.850;2024-01-15T12:14:50;13.18;;;5.30;;
3941;SDS011;1985;48.592;8.850;2024-01-15T12:17:15;15.90;;;5.50;;
3941;SDS011;1985;48.592;8.850;2024-01-15T12:19:42;17.08;;;5.25;;
3941;SDS011;1985;48.592;8.850;2024-01-15T12:22:08;12.85;;;4.78;;
3941;SDS011;1985;48.592;8.850;2024-01-15T12:24:34;17.33;;;5.32;;
3941;SDS011;1985;48.592;8.850;2024-01-15T12:27:01;15.45;;;5.05;;
3941;SDS011;1985;48.592;8.850;2024-01-15T12:29:27;13.13;;;5.20;;
3941;SDS011;1985;48.592;8.850;2024-01-15T12:31:53;15.25;;;5.60;;
3941;SDS011;1985;48.592;8.850;2024-01-15T12:34:19;14.82;;;5.35;;
3941;SDS011;1985;48.592;8.850;2024-01-15T12:36:48;11.90;;;4.50;;
3941;SDS011;1985;48.592;8.850;2024-01-15T12:39:14;13.60;;;4.90;;
3941;SDS011;1985;48.592;8.850;2024-01-15T12:41:40;12.82;;;5.05;;
3941;SDS011;1985;48.592;8.850;2024-01-15T12:44:06;13.30;;;5.00;;
3941;SDS011;1985;48.592;8.850;2024-01-15T12:46:32;15.30;;;4.70;;
3941;SDS011;1985;48.592;8.850;2024-01-15T12:48:58;15.18;;;4.93;;
3941;SDS011;1985;48.592;8.850;2024-01-15T12:51:26;12.83;;;4.20;;
3941;SDS011;1985;48.592;8.850;2024-01-15T12:53:53;13.00;;;5.00;;
3941;SDS011;1985;48.592;8.850;2024-01-15T12:56:18;13.05;;;4.60;;
3941;SDS011;1985;48.592;8.850;2024-01-15T12:58:44;12.32;;;4.47;;
3941;SDS011;1985;48.592;8.850;2024-01-15T13:01:10;14.27;;;5.00;;
3941;SDS011;1985;48.592;8.850;2024-01-15T13:03:35;12.53;;;4.50;;
3941;SDS011;1985;48.592;8.850;2024-01-15T13:06:01;12.33;;;4.43;;
3941;SDS011;1985;48.592;8.850;2024-01-15T13:08:27;15.60;;;4.53;;
3941;SDS011;1985;48.592;8.850;2024-01-15T13:10:55;13.60;;;3.80;;
3941;SDS011;1985;48.592;8.850;2024-01-15T13:13:22;10.68;;;3.50;;
3941;SDS011;1985;48.592;8.850;2024-01-15T13:15:48;10.80;;;3.90;;
3941;SDS011;1985;48.592;8.850;2024-01-15T13:18:14;13.65;;;3.88;;
3941;SDS011;1985;48.592;8.850;2024-01-15T13:20:39;12.80;;;3.72;;
3941;SDS011;1985;48.592;8.850;2024-01-15T13:23:05;10.15;;;3.50;;
3941;SDS011;1985;48.592;8.850;2024-01-15T13:25:31;12.40;;;3.83;;
3941;SDS011;1985;48.592;8.850;2024-01-15T13:27:57;13.95;;;3.63;;
3941;SDS011;1985;48.592;8.850;2024-01-15T13:30:23;11.40;;;3.90;;
3941;SDS011;1985;48.592;8.850;2024-01-15T13:32:48;12.68;;;4.60;;
3941;SDS011;1985;48.592;8.850;2024-01-15T13:35:14;14.60;;;5.00;;
3941;SDS011;1985;48.592;8.850;2024-01-15T13:37:40;11.80;;;3.90;;
3941;SDS011;1985;48.592;8.850;2024-01-15T13:40:09;13.87;;;4.57;;
3941;SDS011;1985;48.592;8.850;2024-01-15T13:42:41;13.20;;;4.68;;
3941;SDS011;1985;48.592;8.850;2024-01-15T13:45:07;12.18;;;4.32;;
3941;SDS011;1985;48.592;8.850;2024-01-15T13:47:33;12.95;;;4.70;;
3941;SDS011;1985;48.592;8.850;2024-01-15T13:49:59;15.82;;;4.75;;
3941;SDS011;1985;48.592;8.850;2024-01-15T13:52:25;12.43;;;4.40;;
3941;SDS011;1985;48.592;8.850;2024-01-15T13:54:52;14.45;;;4.47;;
3941;SDS011;1985;48.592;8.850;2024-01-15T13:57:18;14.00;;;4.80;;
3941;SDS011;1985;48.592;8.850;2024-01-15T13:59:44;12.23;;;4.30;;
3941;SDS011;1985;48.592;8.850;2024-01-15T14:02:10;14.00;;;4.40;;
3941;SDS011;1985;48.592;8.850;2024-01-15T14:04:36;12.97;;;4.30;;
3941;SDS011;1985;48.592;8.850;2024-01-15T14:07:02;12.23;;;3.88;;
3941;SDS011;1985;48.592;8.850;2024-01-15T14:09:29;11.23;;;3.72;;
3941;SDS011;1985;48.592;8.850;2024-01-15T14:11:56;14.17;;;3.40;;
3941;SDS011;1985;48.592;8.850;2024-01-15T14:14:22;11.10;;;3.90;;
3941;SDS011;1985;48.592;8.850;2024-01-15T14:16:49;9.60;;;3.37;;
3941;SDS011;1985;48.592;8.850;2024-01-15T14:19:15;11.50;;;3.40;;
3941;SDS011;1985;48.592;8.850;2024-01-15T14:21:40;9.07;;;2.83;;
3941;SDS011;1985;48.592;8.850;2024-01-15T14:24:06;11.18;;;2.60;;
3941;SDS011;1985;48.592;8.850;2024-01-15T14:26:32;9.50;;;2.65;;
3941;SDS011;1985;48.592;8.850;2024-01-15T14:28:57;8.52;;;2.30;;
3941;SDS011;1985;48.592;8.850;2024-01-15T14:31:23;8.20;;;2.40;;
3941;SDS011;1985;48.592;8.850;2024-01-15T14:33:51;9.40;;;2.80;;
3941;SDS011;1985;48.592;8.850;2024-01-15T14:36:17;8.73;;;2.63;;
3941;SDS011;1985;48.592;8.850;2024-01-15T14:38:43;10.02;;;2.85;;
3941;SDS011;1985;48.592;8.850;2024-01-15T14:41:09;9.27;;;3.15;;
3941;SDS011;1985;48.592;8.850;2024-01-15T14:43:34;9.48;;;3.10;;
3941;SDS011;1985;48.592;8.850;2024-01-15T14:46:00;7.50;;;1.75;;
3941;SDS011;1985;48.592;8.850;2024-01-15T14:48:26;7.53;;;1.80;;
3941;SDS011;1985;48.592;8.850;2024-01-15T14:50:52;7.23;;;1.70;;
3941;SDS011;1985;48.592;8.850;2024-01-15T14:53:17;8.23;;;2.10;;
3941;SDS011;1985;48.592;8.850;2024-01-15T14:55:43;7.78;;;2.00;;
3941;SDS011;1985;48.592;8.850;2024-01-15T14:58:09;7.63;;;2.00;;
3941;SDS011;1985;48.592;8.850;2024-01-15T15:00:34;7.87;;;1.87;;
3941;SDS011;1985;48.592;8.850;2024-01-15T15:03:00;10.33;;;3.00;;
3941;SDS011;1985;48.592;8.850;2024-01-15T15:05:25;9.10;;;2.67;;
3941;SDS011;1985;48.592;8.850;2024-01-15T15:07:51;7.38;;;1.80;;
3941;SDS011;1985;48.592;8.850;2024-01-15T15:10:17;9.45;;;2.08;;
3941;SDS011;1985;48.592;8.850;2024-01-15T15:12:43;7.30;;;2.00;;
3941;SDS011;1985;48.592;8.850;2024-01-15T15:15:09;8.37;;;2.27;;